sensor_id;sensor_type;location;lat;lon;timestamp;P1;durP1;ratioP1;P2;durP2;ratioP2
69256;SDS011;56376;53.356;-1.748;2023-04-24T00:00:10;6.80;;;3.30;;
69256;SDS011;56376;53.356;-1.748;2023-04-24T00:02:37;6.63;;;3.50;;
69256;SDS011;56376;53.356;-1.748;2023-04-24T00:05:06;7.07;;;3.27;;
69256;SDS011;56376;53.356;-1.748;2023-04-24T00:07:32;5.80;;;2.83;;
69256;SDS011;56376;53.356;-1.748;2023-04-24T00:09:59;5.13;;;2.33;;
69256;SDS011;56376;53.356;-1.748;2023-04-24T00:12:25;5.20;;;2.70;;
69256;SDS011;56376;53.356;-1.748;2023-04-24T00:14:51;8.03;;;3.03;;
69256;SDS011;56376;53.356;-1.748;2023-04-24T00:17:17;3.83;;;2.47;;
69256;SDS011;56376;53.356;-1.748;2023-04-24T00:19:45;3.87;;;2.13;;
69256;SDS011;56376;53.356;-1.748;2023-04-24T00:22:11;6.53;;;2.30;;
69256;SDS011;56376;53.356;-1.748;2023-04-24T00:24:38;3.13;;;1.80;;
69256;SDS011;56376;53.356;-1.748;2023-04-24T00:27:03;2.83;;;1.70;;
69256;SDS011;56376;53.356;-1.748;2023-04-24T00:29:29;5.17;;;2.10;;
69256;SDS011;56376;53.356;-1.748;2023-04-24T00:31:54;4.13;;;1.87;;
69256;SDS011;56376;53.356;-1.748;2023-04-24T00:34:20;2.83;;;1.67;;
69256;SDS011;56376;53.356;-1.748;2023-04-24T00:36:45;4.50;;;2.10;;
69256;SDS011;56376;53.356;-1.748;2023-04-24T00:39:11;3.63;;;1.80;;
69256;SDS011;56376;53.356;-1.748;2023-04-24T00:41:36;4.00;;;2.27;;
69256;SDS011;56376;53.356;-1.748;2023-04-24T00:44:02;3.33;;;1.50;;
69256;SDS011;56376;53.356;-1.748;2023-04-24T00:46:27;2.47;;;1.30;;
69256;SDS011;56376;53.356;-1.748;2023-04-24T00:48:53;3.37;;;1.50;;
69256;SDS011;56376;53.356;-1.748;2023-04-24T00:51:19;1.87;;;1.10;;
69256;SDS011;56376;53.356;-1.748;2023-04-24T00:53:45;2.00;;;1.60;;
69256;SDS011;56376;53.356;-1.748;2023-04-24T00:56:11;3.33;;;1.87;;
69256;SDS011;56376;53.356;-1.748;2023-04-24T00:58:37;3.67;;;1.90;;
69256;SDS011;56376;53.356;-1.748;2023-04-24T01:01:03;6.17;;;2.23;;
69256;SDS011;56376;53.356;-1.748;2023-04-24T01:03:32;4.07;;;1.80;;
69256;SDS011;56376;53.356;-1.748;2023-04-24T01:05:58;4.13;;;2.10;;
69256;SDS011;56376;53.356;-1.748;2023-04-24T01:08:24;3.40;;;1.50;;
69256;SDS011;56376;53.356;-1.748;2023-04-24T01:10:51;4.03;;;1.53;;
69256;SDS011;56376;53.356;-1.748;2023-04-24T01:13:18;2.33;;;1.50;;
69256;SDS011;56376;53.356;-1.748;2023-04-24T01:15:46;3.97;;;1.50;;
69256;SDS011;56376;53.356;-1.748;2023-04-24T01:18:12;3.40;;;1.50;;
69256;SDS011;56376;53.356;-1.748;2023-04-24T01:20:42;3.07;;;1.50;;
69256;SDS011;56376;53.356;-1.748;2023-04-24T01:23:10;2.77;;;1.50;;
69256;SDS011;56376;53.356;-1.748;2023-04-24T01:25:36;1.93;;;1.33;;
69256;SDS011;56376;53.356;-1.748;2023-04-24T01:28:02;3.27;;;1.57;;
69256;SDS011;56376;53.356;-1.748;2023-04-24T01:30:28;1.83;;;1.30;;
69256;SDS011;56376;53.356;-1.748;2023-04-24T01:32:54;3.13;;;1.60;;
69256;SDS011;56376;53.356;-1.748;2023-04-24T01:35:20;4.37;;;1.50;;
69256;SDS011;56376;53.356;-1.748;2023-04-24T01:37:45;2.70;;;1.43;;
69256;SDS011;56376;53.356;-1.748;2023-04-24T01:40:11;2.23;;;1.40;;
69256;SDS011;56376;53.356;-1.748;2023-04-24T01:42:37;2.07;;;1.57;;
69256;SDS011;56376;53.356;-1.748;2023-04-24T01:45:03;3.90;;;1.73;;
69256;SDS011;56376;53.356;-1.748;2023-04-24T01:47:30;3.33;;;1.60;;
69256;SDS011;56376;53.356;-1.748;2023-04-24T01:49:56;2.53;;;1.70;;
69256;SDS011;56376;53.356;-1.748;2023-04-24T01:52:22;2.50;;;1.47;;
69256;SDS011;56376;53.356;-1.748;2023-04-24T01:54:48;3.27;;;1.60;;
69256;SDS011;56376;53.356;-1.748;2023-04-24T01:57:14;2.23;;;1.40;;
69256;SDS011;56376;53.356;-1.748;2023-04-24T01:59:39;2.60;;;1.30;;
69256;SDS011;56376;53.356;-1.748;2023-04-24T02:02:05;4.20;;;2.00;;
69256;SDS011;56376;53.356;-1.748;2023-04-24T02:04:31;2.50;;;1.47;;
69256;SDS011;56376;53.356;-1.748;2023-04-24T02:06:56;4.53;;;2.10;;
69256;SDS011;56376;53.356;-1.748;2023-04-24T02:09:22;3.63;;;1.43;;
69256;SDS011;56376;53.356;-1.748;2023-04-24T02:11:47;2.60;;;1.30;;
69256;SDS011;56376;53.356;-1.748;2023-04-24T02:14:12;3.53;;;1.30;;
69256;SDS011;56376;53.356;-1.748;2023-04-24T02:16:38;3.90;;;1.43;;
69256;SDS011;56376;53.356;-1.748;2023-04-24T02:19:03;2.83;;;1.53;;
69256;SDS011;56376;53.356;-1.748;2023-04-24T02:21:29;4.47;;;1.50;;
69256;SDS011;56376;53.356;-1.748;2023-04-24T02:23:55;2.67;;;1.33;;
69256;SDS011;56376;53.356;-1.748;2023-04-24T02:26:21;3.63;;;1.83;;
69256;SDS011;56376;53.356;-1.748;2023-04-24T02:28:46;4.83;;;2.50;;
69256;SDS011;56376;53.356;-1.748;2023-04-24T02:31:11;1.43;;;1.07;;
69256;SDS011;56376;53.356;-1.748;2023-04-24T02:33:37;1.60;;;1.10;;
69256;SDS011;56376;53.356;-1.748;2023-04-24T02:36:02;2.07;;;1.37;;
69256;SDS011;56376;53.356;-1.748;2023-04-24T02:38:28;2.73;;;1.30;;
69256;SDS011;56376;53.356;-1.748;2023-04-24T02:40:54;1.90;;;1.10;;
69256;SDS011;56376;53.356;-1.748;2023-04-24T02:43:19;2.77;;;1.50;;
69256;SDS011;56376;53.356;-1.748;2023-04-24T02:45:45;5.20;;;2.27;;
69256;SDS011;56376;53.356;-1.748;2023-04-24T02:48:10;2.57;;;1.60;;
69256;SDS011;56376;53.356;-1.748;2023-04-24T02:50:36;1.63;;;1.10;;
69256;SDS011;56376;53.356;-1.748;2023-04-24T02:53:01;2.03;;;1.40;;
69256;SDS011;56376;53.356;-1.748;2023-04-24T02:55:27;3.00;;;1.47;;
69256;SDS011;56376;53.356;-1.748;2023-04-24T02:57:52;4.07;;;1.37;;
69256;SDS011;56376;53.356;-1.748;2023-04-24T03:00:17;2.43;;;1.40;;
69256;SDS011;56376;53.356;-1.748;2023-04-24T03:02:43;3.47;;;1.53;;
69256;SDS011;56376;53.356;-1.748;2023-04-24T03:05:08;2.03;;;1.30;;
69256;SDS011;56376;53.356;-1.748;2023-04-24T03:07:34;2.87;;;1.40;;
69256;SDS011;56376;53.356;-1.748;2023-04-24T03:09:59;4.53;;;1.90;;
69256;SDS011;56376;53.356;-1.748;2023-04-24T03:12:25;3.13;;;1.40;;
69256;SDS011;56376;53.356;-1.748;2023-04-24T03:14:50;2.80;;;1.50;;
69256;SDS011;56376;53.356;-1.748;2023-04-24T03:17:16;2.70;;;1.13;;
69256;SDS011;56376;53.356;-1.748;2023-04-24T03:19:41;2.77;;;1.30;;
69256;SDS011;56376;53.356;-1.748;2023-04-24T03:22:06;3.50;;;1.67;;
69256;SDS011;56376;53.356;-1.748;2023-04-24T03:24:34;3.47;;;1.40;;
69256;SDS011;56376;53.356;-1.748;2023-04-24T03:26:59;3.83;;;1.43;;
69256;SDS011;56376;53.356;-1.748;2023-04-24T03:29:25;1.83;;;1.23;;
69256;SDS011;56376;53.356;-1.748;2023-04-24T03:31:50;2.77;;;1.20;;
69256;SDS011;56376;53.356;-1.748;2023-04-24T03:34:15;2.87;;;1.10;;
69256;SDS011;56376;53.356;-1.748;2023-04-24T03:36:41;4.53;;;2.53;;
69256;SDS011;56376;53.356;-1.748;2023-04-24T03:39:06;2.27;;;2.07;;
69256;SDS011;56376;53.356;-1.748;2023-04-24T03:41:32;1.60;;;1.17;;
69256;SDS011;56376;53.356;-1.748;2023-04-24T03:43:57;3.20;;;1.17;;
69256;SDS011;56376;53.356;-1.748;2023-04-24T03:46:23;1.70;;;1.20;;
69256;SDS011;56376;53.356;-1.748;2023-04-24T03:48:48;2.60;;;1.40;;
69256;SDS011;56376;53.356;-1.748;2023-04-24T03:51:14;2.47;;;1.30;;
69256;SDS011;56376;53.356;-1.748;2023-04-24T03:53:39;2.57;;;1.53;;
69256;SDS011;56376;53.356;-1.748;2023-04-24T03:56:05;2.97;;;1.13;;
69256;SDS011;56376;53.356;-1.748;2023-04-24T03:58:30;3.60;;;1.67;;
69256;SDS011;56376;53.356;-1.748;2023-04-24T04:00:56;3.27;;;1.30;;
69256;SDS011;56376;53.356;-1.748;2023-04-24T04:03:23;2.57;;;1.50;;
69256;SDS011;56376;53.356;-1.748;2023-04-24T04:05:48;3.17;;;1.30;;
69256;SDS011;56376;53.356;-1.748;2023-04-24T04:08:14;3.47;;;1.17;;
69256;SDS011;56376;53.356;-1.748;2023-04-24T04:10:39;1.40;;;1.20;;
69256;SDS011;56376;53.356;-1.748;2023-04-24T04:13:05;2.20;;;1.20;;
69256;SDS011;56376;53.356;-1.748;2023-04-24T04:15:31;4.27;;;1.60;;
69256;SDS011;56376;53.356;-1.748;2023-04-24T04:17:57;1.23;;;0.87;;
69256;SDS011;56376;53.356;-1.748;2023-04-24T04:20:22;1.30;;;1.20;;
69256;SDS011;56376;53.356;-1.748;2023-04-24T04:22:48;1.80;;;1.40;;
69256;SDS011;56376;53.356;-1.748;2023-04-24T04:25:13;2.97;;;1.30;;
69256;SDS011;56376;53.356;-1.748;2023-04-24T04:27:38;2.47;;;1.40;;
69256;SDS011;56376;53.356;-1.748;2023-04-24T04:30:06;2.07;;;1.17;;
69256;SDS011;56376;53.356;-1.748;2023-04-24T04:32:33;2.33;;;1.40;;
69256;SDS011;56376;53.356;-1.748;2023-04-24T04:35:02;2.50;;;1.20;;
69256;SDS011;56376;53.356;-1.748;2023-04-24T04:37:29;3.97;;;1.53;;
69256;SDS011;56376;53.356;-1.748;2023-04-24T04:39:55;1.87;;;1.30;;
69256;SDS011;56376;53.356;-1.748;2023-04-24T04:42:20;3.03;;;1.30;;
69256;SDS011;56376;53.356;-1.748;2023-04-24T04:44:46;1.87;;;1.03;;
69256;SDS011;56376;53.356;-1.748;2023-04-24T04:47:11;3.30;;;1.27;;
69256;SDS011;56376;53.356;-1.748;2023-04-24T04:49:37;2.17;;;1.23;;
69256;SDS011;56376;53.356;-1.748;2023-04-24T04:52:03;1.70;;;1.40;;
69256;SDS011;56376;53.356;-1.748;2023-04-24T04:54:29;2.40;;;1.40;;
69256;SDS011;56376;53.356;-1.748;2023-04-24T04:56:55;5.30;;;1.50;;
69256;SDS011;56376;53.356;-1.748;2023-04-24T04:59:22;1.60;;;1.10;;
69256;SDS011;56376;53.356;-1.748;2023-04-24T05:01:47;2.43;;;1.33;;
69256;SDS011;56376;53.356;-1.748;2023-04-24T05:04:12;5.23;;;1.90;;
69256;SDS011;56376;53.356;-1.748;2023-04-24T05:06:38;3.37;;;1.50;;
69256;SDS011;56376;53.356;-1.748;2023-04-24T05:09:03;2.43;;;1.60;;
69256;SDS011;56376;53.356;-1.748;2023-04-24T05:11:29;2.77;;;1.30;;
69256;SDS011;56376;53.356;-1.748;2023-04-24T05:13:55;3.67;;;1.63;;
69256;SDS011;56376;53.356;-1.748;2023-04-24T05:16:20;2.57;;;1.60;;
69256;SDS011;56376;53.356;-1.748;2023-04-24T05:18:46;3.17;;;1.70;;
69256;SDS011;56376;53.356;-1.748;2023-04-24T05:21:11;1.87;;;1.10;;
69256;SDS011;56376;53.356;-1.748;2023-04-24T05:23:37;2.73;;;1.40;;
69256;SDS011;56376;53.356;-1.748;2023-04-24T05:26:02;3.00;;;1.23;;
69256;SDS011;56376;53.356;-1.748;2023-04-24T05:28:28;2.20;;;1.87;;
69256;SDS011;56376;53.356;-1.748;2023-04-24T05:30:53;3.17;;;1.70;;
69256;SDS011;56376;53.356;-1.748;2023-04-24T05:33:20;3.57;;;1.27;;
69256;SDS011;56376;53.356;-1.748;2023-04-24T05:35:47;4.33;;;1.90;;
69256;SDS011;56376;53.356;-1.748;2023-04-24T05:38:13;3.60;;;1.33;;
69256;SDS011;56376;53.356;-1.748;2023-04-24T05:40:39;2.13;;;1.30;;
69256;SDS011;56376;53.356;-1.748;2023-04-24T05:43:04;3.17;;;1.50;;
69256;SDS011;56376;53.356;-1.748;2023-04-24T05:45:30;2.47;;;1.40;;
69256;SDS011;56376;53.356;-1.748;2023-04-24T05:47:56;4.60;;;1.70;;
69256;SDS011;56376;53.356;-1.748;2023-04-24T05:50:22;4.27;;;1.40;;
69256;SDS011;56376;53.356;-1.748;2023-04-24T05:52:47;3.90;;;1.50;;
69256;SDS011;56376;53.356;-1.748;2023-04-24T05:55:12;4.77;;;1.77;;
69256;SDS011;56376;53.356;-1.748;2023-04-24T05:57:38;3.50;;;1.80;;
69256;SDS011;56376;53.356;-1.748;2023-04-24T06:00:04;3.87;;;1.90;;
69256;SDS011;56376;53.356;-1.748;2023-04-24T06:02:30;5.43;;;1.30;;
69256;SDS011;56376;53.356;-1.748;2023-04-24T06:04:57;5.67;;;1.60;;
69256;SDS011;56376;53.356;-1.748;2023-04-24T06:07:24;3.37;;;1.87;;
69256;SDS011;56376;53.356;-1.748;2023-04-24T06:09:53;10.87;;;2.53;;
69256;SDS011;56376;53.356;-1.748;2023-04-24T06:12:19;5.47;;;1.90;;
69256;SDS011;56376;53.356;-1.748;2023-04-24T06:14:44;7.30;;;2.77;;
69256;SDS011;56376;53.356;-1.748;2023-04-24T06:17:09;4.07;;;2.03;;
69256;SDS011;56376;53.356;-1.748;2023-04-24T06:19:35;9.17;;;2.70;;
69256;SDS011;56376;53.356;-1.748;2023-04-24T06:22:00;8.53;;;2.67;;
69256;SDS011;56376;53.356;-1.748;2023-04-24T06:24:28;4.53;;;1.80;;
69256;SDS011;56376;53.356;-1.748;2023-04-24T06:26:54;4.00;;;2.50;;
69256;SDS011;56376;53.356;-1.748;2023-04-24T06:29:20;6.27;;;2.23;;
69256;SDS011;56376;53.356;-1.748;2023-04-24T06:31:45;4.17;;;2.40;;
69256;SDS011;56376;53.356;-1.748;2023-04-24T06:34:10;6.33;;;2.10;;
69256;SDS011;56376;53.356;-1.748;2023-04-24T06:36:36;9.90;;;2.30;;
69256;SDS011;56376;53.356;-1.748;2023-04-24T06:39:02;6.93;;;2.67;;
69256;SDS011;56376;53.356;-1.748;2023-04-24T06:41:28;4.10;;;1.90;;
69256;SDS011;56376;53.356;-1.748;2023-04-24T06:43:54;8.57;;;2.93;;
69256;SDS011;56376;53.356;-1.748;2023-04-24T06:46:19;5.53;;;2.20;;
69256;SDS011;56376;53.356;-1.748;2023-04-24T06:48:47;6.33;;;2.70;;
69256;SDS011;56376;53.356;-1.748;2023-04-24T06:51:12;5.50;;;2.57;;
69256;SDS011;56376;53.356;-1.748;2023-04-24T06:53:37;5.23;;;2.33;;
69256;SDS011;56376;53.356;-1.748;2023-04-24T06:56:03;4.93;;;2.70;;
69256;SDS011;56376;53.356;-1.748;2023-04-24T06:58:29;14.90;;;6.63;;
69256;SDS011;56376;53.356;-1.748;2023-04-24T07:00:55;9.57;;;5.43;;
69256;SDS011;56376;53.356;-1.748;2023-04-24T07:03:20;5.83;;;3.50;;
69256;SDS011;56376;53.356;-1.748;2023-04-24T07:05:46;7.13;;;4.33;;
69256;SDS011;56376;53.356;-1.748;2023-04-24T07:08:13;5.43;;;2.70;;
69256;SDS011;56376;53.356;-1.748;2023-04-24T07:10:38;8.20;;;3.30;;
69256;SDS011;56376;53.356;-1.748;2023-04-24T07:13:04;6.07;;;3.03;;
69256;SDS011;56376;53.356;-1.748;2023-04-24T07:15:29;6.50;;;4.80;;
69256;SDS011;56376;53.356;-1.748;2023-04-24T07:17:55;11.17;;;5.30;;
69256;SDS011;56376;53.356;-1.748;2023-04-24T07:20:21;6.33;;;2.97;;
69256;SDS011;56376;53.356;-1.748;2023-04-24T07:22:46;6.87;;;2.97;;
69256;SDS011;56376;53.356;-1.748;2023-04-24T07:25:13;7.40;;;3.13;;
69256;SDS011;56376;53.356;-1.748;2023-04-24T07:27:38;10.50;;;3.20;;
69256;SDS011;56376;53.356;-1.748;2023-04-24T07:30:04;4.13;;;2.73;;
69256;SDS011;56376;53.356;-1.748;2023-04-24T07:32:29;10.30;;;3.10;;
69256;SDS011;56376;53.356;-1.748;2023-04-24T07:34:55;10.33;;;3.47;;
69256;SDS011;56376;53.356;-1.748;2023-04-24T07:37:20;9.60;;;2.73;;
69256;SDS011;56376;53.356;-1.748;2023-04-24T07:39:46;5.33;;;2.80;;
69256;SDS011;56376;53.356;-1.748;2023-04-24T07:42:12;6.20;;;2.30;;
69256;SDS011;56376;53.356;-1.748;2023-04-24T07:44:38;4.07;;;2.60;;
69256;SDS011;56376;53.356;-1.748;2023-04-24T07:47:03;7.03;;;3.13;;
69256;SDS011;56376;53.356;-1.748;2023-04-24T07:49:29;9.13;;;2.70;;
69256;SDS011;56376;53.356;-1.748;2023-04-24T07:51:54;7.50;;;3.17;;
69256;SDS011;56376;53.356;-1.748;2023-04-24T07:54:20;7.97;;;3.10;;
69256;SDS011;56376;53.356;-1.748;2023-04-24T07:56:45;11.33;;;4.07;;
69256;SDS011;56376;53.356;-1.748;2023-04-24T07:59:10;11.97;;;3.83;;
69256;SDS011;56376;53.356;-1.748;2023-04-24T08:01:36;11.27;;;4.50;;
69256;SDS011;56376;53.356;-1.748;2023-04-24T08:04:01;8.77;;;2.87;;
69256;SDS011;56376;53.356;-1.748;2023-04-24T08:06:27;5.83;;;2.97;;
69256;SDS011;56376;53.356;-1.748;2023-04-24T08:08:55;6.43;;;2.60;;
69256;SDS011;56376;53.356;-1.748;2023-04-24T08:11:21;5.27;;;2.67;;
69256;SDS011;56376;53.356;-1.748;2023-04-24T08:13:47;3.77;;;2.00;;
69256;SDS011;56376;53.356;-1.748;2023-04-24T08:16:12;5.03;;;2.20;;
69256;SDS011;56376;53.356;-1.748;2023-04-24T08:18:38;6.33;;;2.50;;
69256;SDS011;56376;53.356;-1.748;2023-04-24T08:21:03;5.17;;;2.33;;
69256;SDS011;56376;53.356;-1.748;2023-04-24T08:23:29;6.67;;;2.20;;
69256;SDS011;56376;53.356;-1.748;2023-04-24T08:25:54;4.77;;;2.37;;
69256;SDS011;56376;53.356;-1.748;2023-04-24T08:28:20;7.13;;;3.20;;
69256;SDS011;56376;53.356;-1.748;2023-04-24T08:30:46;3.60;;;2.00;;
69256;SDS011;56376;53.356;-1.748;2023-04-24T08:33:12;4.97;;;2.10;;
69256;SDS011;56376;53.356;-1.748;2023-04-24T08:35:38;7.40;;;2.50;;
69256;SDS011;56376;53.356;-1.748;2023-04-24T08:38:04;6.20;;;2.50;;
69256;SDS011;56376;53.356;-1.748;2023-04-24T08:40:29;9.50;;;2.93;;
69256;SDS011;56376;53.356;-1.748;2023-04-24T08:42:59;5.67;;;2.43;;
69256;SDS011;56376;53.356;-1.748;2023-04-24T08:45:25;5.30;;;2.77;;
69256;SDS011;56376;53.356;-1.748;2023-04-24T08:47:51;6.80;;;3.00;;
69256;SDS011;56376;53.356;-1.748;2023-04-24T08:50:19;4.77;;;2.70;;
69256;SDS011;56376;53.356;-1.748;2023-04-24T08:52:45;6.27;;;2.70;;
69256;SDS011;56376;53.356;-1.748;2023-04-24T08:55:12;8.53;;;3.37;;
69256;SDS011;56376;53.356;-1.748;2023-04-24T08:57:37;10.33;;;3.47;;
69256;SDS011;56376;53.356;-1.748;2023-04-24T09:00:05;4.60;;;2.47;;
69256;SDS011;56376;53.356;-1.748;2023-04-24T09:02:31;5.07;;;3.00;;
69256;SDS011;56376;53.356;-1.748;2023-04-24T09:04:59;7.03;;;2.67;;
69256;SDS011;56376;53.356;-1.748;2023-04-24T09:07:25;5.50;;;2.27;;
69256;SDS011;56376;53.356;-1.748;2023-04-24T09:09:52;4.27;;;2.97;;
69256;SDS011;56376;53.356;-1.748;2023-04-24T09:12:19;5.97;;;2.73;;
69256;SDS011;56376;53.356;-1.748;2023-04-24T09:14:45;7.03;;;3.47;;
69256;SDS011;56376;53.356;-1.748;2023-04-24T09:17:11;8.33;;;3.37;;
69256;SDS011;56376;53.356;-1.748;2023-04-24T09:19:37;6.80;;;3.10;;
69256;SDS011;56376;53.356;-1.748;2023-04-24T09:22:05;7.07;;;2.77;;
69256;SDS011;56376;53.356;-1.748;2023-04-24T09:24:31;9.70;;;3.08;;
69256;SDS011;56376;53.356;-1.748;2023-04-24T09:26:57;8.10;;;2.97;;
69256;SDS011;56376;53.356;-1.748;2023-04-24T09:29:29;4.83;;;2.73;;
69256;SDS011;56376;53.356;-1.748;2023-04-24T09:31:55;6.27;;;2.70;;
69256;SDS011;56376;53.356;-1.748;2023-04-24T09:34:24;8.25;;;3.50;;
69256;SDS011;56376;53.356;-1.748;2023-04-24T09:36:51;10.63;;;2.95;;
69256;SDS011;56376;53.356;-1.748;2023-04-24T09:39:17;8.65;;;3.03;;
69256;SDS011;56376;53.356;-1.748;2023-04-24T09:41:47;11.13;;;3.10;;
69256;SDS011;56376;53.356;-1.748;2023-04-24T09:44:25;6.78;;;3.30;;
69256;SDS011;56376;53.356;-1.748;2023-04-24T09:46:53;6.95;;;2.60;;
69256;SDS011;56376;53.356;-1.748;2023-04-24T09:51:49;6.30;;;2.65;;
69256;SDS011;56376;53.356;-1.748;2023-04-24T09:56:42;6.28;;;2.45;;
69256;SDS011;56376;53.356;-1.748;2023-04-24T09:59:09;8.07;;;3.30;;
69256;SDS011;56376;53.356;-1.748;2023-04-24T10:01:35;7.00;;;2.72;;
69256;SDS011;56376;53.356;-1.748;2023-04-24T10:04:01;9.68;;;3.13;;
69256;SDS011;56376;53.356;-1.748;2023-04-24T10:06:31;7.72;;;3.90;;
69256;SDS011;56376;53.356;-1.748;2023-04-24T10:08:58;8.00;;;2.90;;
69256;SDS011;56376;53.356;-1.748;2023-04-24T10:11:26;5.45;;;2.40;;
69256;SDS011;56376;53.356;-1.748;2023-04-24T10:13:52;6.22;;;2.10;;
69256;SDS011;56376;53.356;-1.748;2023-04-24T10:16:18;6.13;;;2.58;;
69256;SDS011;56376;53.356;-1.748;2023-04-24T10:18:46;5.15;;;2.38;;
69256;SDS011;56376;53.356;-1.748;2023-04-24T10:21:14;3.90;;;1.95;;
69256;SDS011;56376;53.356;-1.748;2023-04-24T10:23:40;4.32;;;2.20;;
69256;SDS011;56376;53.356;-1.748;2023-04-24T10:26:07;4.38;;;2.58;;
69256;SDS011;56376;53.356;-1.748;2023-04-24T10:28:35;5.55;;;2.75;;
69256;SDS011;56376;53.356;-1.748;2023-04-24T10:31:01;7.22;;;2.80;;
69256;SDS011;56376;53.356;-1.748;2023-04-24T10:33:27;5.07;;;2.50;;
69256;SDS011;56376;53.356;-1.748;2023-04-24T10:35:55;4.70;;;2.58;;
69256;SDS011;56376;53.356;-1.748;2023-04-24T10:38:24;10.35;;;3.33;;
69256;SDS011;56376;53.356;-1.748;2023-04-24T10:40:57;7.07;;;2.83;;
69256;SDS011;56376;53.356;-1.748;2023-04-24T10:43:33;5.32;;;2.17;;
69256;SDS011;56376;53.356;-1.748;2023-04-24T10:46:02;5.45;;;2.55;;
69256;SDS011;56376;53.356;-1.748;2023-04-24T10:48:28;4.63;;;2.53;;
69256;SDS011;56376;53.356;-1.748;2023-04-24T10:50:54;4.10;;;2.33;;
69256;SDS011;56376;53.356;-1.748;2023-04-24T10:53:23;5.72;;;2.78;;
69256;SDS011;56376;53.356;-1.748;2023-04-24T10:56:05;3.60;;;2.03;;
69256;SDS011;56376;53.356;-1.748;2023-04-24T10:58:42;4.35;;;2.42;;
69256;SDS011;56376;53.356;-1.748;2023-04-24T11:01:22;5.10;;;2.30;;
69256;SDS011;56376;53.356;-1.748;2023-04-24T11:03:54;4.93;;;2.20;;
69256;SDS011;56376;53.356;-1.748;2023-04-24T11:06:28;3.25;;;2.08;;
69256;SDS011;56376;53.356;-1.748;2023-04-24T11:09:10;3.92;;;2.22;;
69256;SDS011;56376;53.356;-1.748;2023-04-24T11:11:44;4.07;;;2.05;;
69256;SDS011;56376;53.356;-1.748;2023-04-24T11:14:14;5.82;;;2.30;;
69256;SDS011;56376;53.356;-1.748;2023-04-24T11:21:54;8.68;;;3.45;;
69256;SDS011;56376;53.356;-1.748;2023-04-24T11:24:24;5.38;;;2.38;;
69256;SDS011;56376;53.356;-1.748;2023-04-24T11:26:51;5.03;;;2.42;;
69256;SDS011;56376;53.356;-1.748;2023-04-24T11:29:19;5.80;;;2.58;;
69256;SDS011;56376;53.356;-1.748;2023-04-24T11:31:46;7.20;;;2.75;;
69256;SDS011;56376;53.356;-1.748;2023-04-24T11:34:16;6.15;;;2.63;;
69256;SDS011;56376;53.356;-1.748;2023-04-24T11:36:43;5.95;;;2.00;;
69256;SDS011;56376;53.356;-1.748;2023-04-24T11:39:10;6.20;;;2.47;;
69256;SDS011;56376;53.356;-1.748;2023-04-24T11:41:36;3.25;;;1.77;;
69256;SDS011;56376;53.356;-1.748;2023-04-24T11:44:02;3.67;;;1.90;;
69256;SDS011;56376;53.356;-1.748;2023-04-24T11:46:30;4.50;;;2.30;;
69256;SDS011;56376;53.356;-1.748;2023-04-24T11:48:56;2.80;;;1.77;;
69256;SDS011;56376;53.356;-1.748;2023-04-24T11:51:23;3.70;;;1.85;;
69256;SDS011;56376;53.356;-1.748;2023-04-24T11:53:51;3.80;;;2.30;;
69256;SDS011;56376;53.356;-1.748;2023-04-24T11:56:17;9.30;;;2.88;;
69256;SDS011;56376;53.356;-1.748;2023-04-24T11:58:44;5.20;;;2.75;;
69256;SDS011;56376;53.356;-1.748;2023-04-24T12:01:10;6.00;;;2.38;;
69256;SDS011;56376;53.356;-1.748;2023-04-24T12:03:36;5.10;;;2.35;;
69256;SDS011;56376;53.356;-1.748;2023-04-24T12:06:05;3.45;;;2.20;;
69256;SDS011;56376;53.356;-1.748;2023-04-24T12:08:32;5.70;;;2.30;;
69256;SDS011;56376;53.356;-1.748;2023-04-24T12:11:03;5.93;;;2.42;;
69256;SDS011;56376;53.356;-1.748;2023-04-24T12:13:32;6.95;;;2.47;;
69256;SDS011;56376;53.356;-1.748;2023-04-24T12:15:57;7.50;;;2.40;;
69256;SDS011;56376;53.356;-1.748;2023-04-24T12:18:23;4.35;;;2.35;;
69256;SDS011;56376;53.356;-1.748;2023-04-24T12:20:49;5.93;;;2.67;;
69256;SDS011;56376;53.356;-1.748;2023-04-24T12:23:15;4.57;;;2.13;;
69256;SDS011;56376;53.356;-1.748;2023-04-24T12:25:40;6.35;;;3.00;;
69256;SDS011;56376;53.356;-1.748;2023-04-24T12:30:38;8.75;;;3.58;;
69256;SDS011;56376;53.356;-1.748;2023-04-24T12:33:05;9.07;;;3.35;;
69256;SDS011;56376;53.356;-1.748;2023-04-24T12:35:31;6.75;;;2.92;;
69256;SDS011;56376;53.356;-1.748;2023-04-24T12:38:11;4.80;;;2.60;;
69256;SDS011;56376;53.356;-1.748;2023-04-24T12:40:38;5.18;;;2.70;;
69256;SDS011;56376;53.356;-1.748;2023-04-24T12:45:40;5.70;;;2.67;;
69256;SDS011;56376;53.356;-1.748;2023-04-24T12:48:06;5.85;;;2.55;;
69256;SDS011;56376;53.356;-1.748;2023-04-24T12:50:31;5.53;;;1.98;;
69256;SDS011;56376;53.356;-1.748;2023-04-24T12:52:56;4.95;;;2.40;;
69256;SDS011;56376;53.356;-1.748;2023-04-24T12:55:22;3.90;;;1.85;;
69256;SDS011;56376;53.356;-1.748;2023-04-24T12:57:47;9.73;;;3.33;;
69256;SDS011;56376;53.356;-1.748;2023-04-24T13:00:12;4.65;;;2.22;;
69256;SDS011;56376;53.356;-1.748;2023-04-24T13:02:38;5.22;;;1.98;;
69256;SDS011;56376;53.356;-1.748;2023-04-24T13:05:04;5.80;;;2.50;;
69256;SDS011;56376;53.356;-1.748;2023-04-24T13:07:29;6.38;;;3.03;;
69256;SDS011;56376;53.356;-1.748;2023-04-24T13:09:55;3.95;;;2.00;;
69256;SDS011;56376;53.356;-1.748;2023-04-24T13:12:22;3.78;;;1.73;;
69256;SDS011;56376;53.356;-1.748;2023-04-24T13:14:48;3.92;;;1.98;;
69256;SDS011;56376;53.356;-1.748;2023-04-24T13:17:14;2.47;;;1.52;;
69256;SDS011;56376;53.356;-1.748;2023-04-24T13:19:40;3.22;;;2.10;;
69256;SDS011;56376;53.356;-1.748;2023-04-24T13:22:06;4.47;;;2.08;;
69256;SDS011;56376;53.356;-1.748;2023-04-24T13:24:33;2.33;;;1.75;;
69256;SDS011;56376;53.356;-1.748;2023-04-24T13:26:59;3.35;;;2.00;;
69256;SDS011;56376;53.356;-1.748;2023-04-24T13:29:25;4.28;;;2.00;;
69256;SDS011;56376;53.356;-1.748;2023-04-24T13:31:51;5.15;;;1.95;;
69256;SDS011;56376;53.356;-1.748;2023-04-24T13:34:20;5.68;;;2.65;;
69256;SDS011;56376;53.356;-1.748;2023-04-24T13:36:46;5.25;;;2.95;;
69256;SDS011;56376;53.356;-1.748;2023-04-24T13:39:11;3.40;;;1.70;;
69256;SDS011;56376;53.356;-1.748;2023-04-24T13:41:37;4.32;;;1.90;;
69256;SDS011;56376;53.356;-1.748;2023-04-24T13:44:02;2.95;;;1.70;;
69256;SDS011;56376;53.356;-1.748;2023-04-24T13:46:28;4.00;;;2.30;;
69256;SDS011;56376;53.356;-1.748;2023-04-24T13:48:54;4.10;;;1.90;;
69256;SDS011;56376;53.356;-1.748;2023-04-24T13:51:19;5.25;;;2.10;;
69256;SDS011;56376;53.356;-1.748;2023-04-24T13:53:45;5.82;;;2.72;;
69256;SDS011;56376;53.356;-1.748;2023-04-24T13:56:10;7.18;;;3.03;;
69256;SDS011;56376;53.356;-1.748;2023-04-24T13:58:37;6.00;;;2.30;;
69256;SDS011;56376;53.356;-1.748;2023-04-24T14:01:03;7.55;;;2.38;;
69256;SDS011;56376;53.356;-1.748;2023-04-24T14:03:28;3.85;;;2.25;;
69256;SDS011;56376;53.356;-1.748;2023-04-24T14:05:54;8.38;;;2.38;;
69256;SDS011;56376;53.356;-1.748;2023-04-24T14:08:19;9.05;;;2.60;;
69256;SDS011;56376;53.356;-1.748;2023-04-24T14:10:45;6.50;;;2.28;;
69256;SDS011;56376;53.356;-1.748;2023-04-24T14:13:10;5.68;;;2.83;;
69256;SDS011;56376;53.356;-1.748;2023-04-24T14:15:36;5.95;;;2.22;;
69256;SDS011;56376;53.356;-1.748;2023-04-24T14:18:01;7.82;;;2.42;;
69256;SDS011;56376;53.356;-1.748;2023-04-24T14:20:28;4.70;;;2.17;;
69256;SDS011;56376;53.356;-1.748;2023-04-24T14:22:54;7.13;;;2.80;;
69256;SDS011;56376;53.356;-1.748;2023-04-24T14:25:19;5.88;;;3.10;;
69256;SDS011;56376;53.356;-1.748;2023-04-24T14:27:44;8.07;;;3.00;;
69256;SDS011;56376;53.356;-1.748;2023-04-24T14:30:10;9.60;;;3.03;;
69256;SDS011;56376;53.356;-1.748;2023-04-24T14:32:37;5.57;;;2.58;;
69256;SDS011;56376;53.356;-1.748;2023-04-24T14:35:04;11.35;;;4.15;;
69256;SDS011;56376;53.356;-1.748;2023-04-24T14:37:31;10.95;;;4.35;;
69256;SDS011;56376;53.356;-1.748;2023-04-24T14:39:56;9.02;;;3.53;;
69256;SDS011;56376;53.356;-1.748;2023-04-24T14:42:22;8.27;;;3.92;;